sensor_id;sensor_type;location;lat;lon;timestamp;pressure;altitude;pressure_sealevel;temperature;humidity
76766;BME280;65707;52.362;6.588;2023-02-27T00:01:44;102962.72;;;2.42;65.65
76766;BME280;65707;52.362;6.588;2023-02-27T00:04:11;102959.66;;;2.31;65.63
76766;BME280;65707;52.362;6.588;2023-02-27T00:06:38;102959.78;;;2.08;66.34
76766;BME280;65707;52.362;6.588;2023-02-27T00:09:04;102966.56;;;2.15;66.18
76766;BME280;65707;52.362;6.588;2023-02-27T00:11:32;102965.75;;;2.13;66.30
76766;BME280;65707;52.362;6.588;2023-02-27T00:14:00;102956.56;;;2.00;67.51
76766;BME280;65707;52.362;6.588;2023-02-27T00:16:28;102961.59;;;2.06;67.12
76766;BME280;65707;52.362;6.588;2023-02-27T00:18:55;102954.91;;;2.19;67.10
76766;BME280;65707;52.362;6.588;2023-02-27T00:21:25;102953.75;;;2.25;66.76
76766;BME280;65707;52.362;6.588;2023-02-27T00:23:53;102944.44;;;2.16;67.48
76766;BME280;65707;52.362;6.588;2023-02-27T00:26:20;102937.22;;;2.20;67.51
76766;BME280;65707;52.362;6.588;2023-02-27T00:28:47;102941.00;;;2.34;66.85
76766;BME280;65707;52.362;6.588;2023-02-27T00:31:15;102934.44;;;2.23;66.99
76766;BME280;65707;52.362;6.588;2023-02-27T00:33:42;102938.34;;;2.34;66.30
76766;BME280;65707;52.362;6.588;2023-02-27T00:36:09;102932.84;;;2.19;67.31
76766;BME280;65707;52.362;6.588;2023-02-27T00:38:36;102943.69;;;2.13;67.42
76766;BME280;65707;52.362;6.588;2023-02-27T00:41:03;102939.13;;;2.16;67.10
76766;BME280;65707;52.362;6.588;2023-02-27T00:43:30;102937.66;;;2.09;67.09
76766;BME280;65707;52.362;6.588;2023-02-27T00:45:57;102943.94;;;2.07;67.33
76766;BME280;65707;52.362;6.588;2023-02-27T00:48:25;102938.72;;;2.05;67.26
76766;BME280;65707;52.362;6.588;2023-02-27T00:50:52;102906.16;;;1.82;67.42
76766;BME280;65707;52.362;6.588;2023-02-27T00:53:19;102931.34;;;1.92;67.35
76766;BME280;65707;52.362;6.588;2023-02-27T00:55:48;102946.41;;;1.90;67.45
76766;BME280;65707;52.362;6.588;2023-02-27T00:58:16;102940.50;;;1.83;66.96
76766;BME280;65707;52.362;6.588;2023-02-27T01:00:42;102937.81;;;1.85;67.33
76766;BME280;65707;52.362;6.588;2023-02-27T01:03:09;102934.53;;;1.78;67.30
76766;BME280;65707;52.362;6.588;2023-02-27T01:05:38;102933.72;;;1.76;67.88
76766;BME280;65707;52.362;6.588;2023-02-27T01:08:05;102940.31;;;1.66;68.33
76766;BME280;65707;52.362;6.588;2023-02-27T01:10:32;102950.09;;;1.64;67.81
76766;BME280;65707;52.362;6.588;2023-02-27T01:12:59;102945.16;;;1.55;68.44
76766;BME280;65707;52.362;6.588;2023-02-27T01:15:25;102937.34;;;1.52;68.22
76766;BME280;65707;52.362;6.588;2023-02-27T01:17:55;102941.09;;;1.46;68.37
76766;BME280;65707;52.362;6.588;2023-02-27T01:20:21;102940.31;;;1.44;68.71
76766;BME280;65707;52.362;6.588;2023-02-27T01:22:50;102937.16;;;1.35;68.65
76766;BME280;65707;52.362;6.588;2023-02-27T01:25:17;102951.56;;;1.26;69.56
76766;BME280;65707;52.362;6.588;2023-02-27T01:27:43;102929.78;;;1.20;69.53
76766;BME280;65707;52.362;6.588;2023-02-27T01:30:11;102936.00;;;1.19;68.73
76766;BME280;65707;52.362;6.588;2023-02-27T01:32:39;102925.41;;;1.19;68.64
76766;BME280;65707;52.362;6.588;2023-02-27T01:35:07;102934.38;;;1.15;69.72
76766;BME280;65707;52.362;6.588;2023-02-27T01:37:34;102944.09;;;1.14;70.02
76766;BME280;65707;52.362;6.588;2023-02-27T01:40:03;102943.47;;;1.08;70.51
76766;BME280;65707;52.362;6.588;2023-02-27T01:42:31;102930.94;;;1.13;70.08
76766;BME280;65707;52.362;6.588;2023-02-27T01:47:58;102940.06;;;1.04;69.71
76766;BME280;65707;52.362;6.588;2023-02-27T01:50:29;102925.56;;;0.91;70.09
76766;BME280;65707;52.362;6.588;2023-02-27T01:52:59;102923.72;;;0.70;71.59
76766;BME280;65707;52.362;6.588;2023-02-27T01:55:30;102935.81;;;0.76;71.58
76766;BME280;65707;52.362;6.588;2023-02-27T01:58:02;102937.19;;;0.87;71.36
76766;BME280;65707;52.362;6.588;2023-02-27T02:00:30;102931.84;;;0.89;70.71
76766;BME280;65707;52.362;6.588;2023-02-27T02:03:01;102933.66;;;0.87;70.91
76766;BME280;65707;52.362;6.588;2023-02-27T02:05:35;102925.03;;;0.82;70.46
76766;BME280;65707;52.362;6.588;2023-02-27T02:08:03;102917.56;;;0.70;70.51
76766;BME280;65707;52.362;6.588;2023-02-27T02:10:32;102936.75;;;0.75;71.40
76766;BME280;65707;52.362;6.588;2023-02-27T02:12:59;102943.03;;;0.71;71.58
76766;BME280;65707;52.362;6.588;2023-02-27T02:15:40;102931.63;;;0.70;71.46
76766;BME280;65707;52.362;6.588;2023-02-27T02:18:18;102936.88;;;0.72;70.98
76766;BME280;65707;52.362;6.588;2023-02-27T02:21:10;102936.31;;;0.62;71.85
76766;BME280;65707;52.362;6.588;2023-02-27T02:24:39;102936.28;;;0.64;71.52
76766;BME280;65707;52.362;6.588;2023-02-27T02:27:36;102937.97;;;0.65;70.65
76766;BME280;65707;52.362;6.588;2023-02-27T02:30:39;102944.25;;;0.62;71.23
76766;BME280;65707;52.362;6.588;2023-02-27T02:37:21;102940.69;;;0.63;71.86
76766;BME280;65707;52.362;6.588;2023-02-27T02:40:24;102937.03;;;0.67;71.64
76766;BME280;65707;52.362;6.588;2023-02-27T02:43:05;102931.75;;;0.67;71.67
76766;BME280;65707;52.362;6.588;2023-02-27T02:45:46;102938.03;;;0.63;71.78
76766;BME280;65707;52.362;6.588;2023-02-27T02:48:22;102947.66;;;0.66;72.46
76766;BME280;65707;52.362;6.588;2023-02-27T02:50:58;102943.50;;;0.59;72.69
76766;BME280;65707;52.362;6.588;2023-02-27T02:53:33;102929.34;;;0.60;72.58
76766;BME280;65707;52.362;6.588;2023-02-27T02:56:12;102942.09;;;0.73;71.96
76766;BME280;65707;52.362;6.588;2023-02-27T02:58:53;102943.81;;;0.74;71.96
76766;BME280;65707;52.362;6.588;2023-02-27T03:01:30;102940.47;;;0.69;72.26
76766;BME280;65707;52.362;6.588;2023-02-27T03:04:05;102939.03;;;0.61;72.43
76766;BME280;65707;52.362;6.588;2023-02-27T03:06:39;102957.47;;;0.62;73.09
76766;BME280;65707;52.362;6.588;2023-02-27T03:09:16;102947.53;;;0.69;72.75
76766;BME280;65707;52.362;6.588;2023-02-27T03:11:50;102946.84;;;0.64;72.63
76766;BME280;65707;52.362;6.588;2023-02-27T03:14:23;102957.41;;;0.64;72.97
76766;BME280;65707;52.362;6.588;2023-02-27T03:16:59;102956.38;;;0.68;73.04
76766;BME280;65707;52.362;6.588;2023-02-27T03:19:38;102951.56;;;0.54;73.03
76766;BME280;65707;52.362;6.588;2023-02-27T03:22:09;102955.75;;;0.60;73.11
76766;BME280;65707;52.362;6.588;2023-02-27T03:24:43;102942.84;;;0.52;73.68
76766;BME280;65707;52.362;6.588;2023-02-27T03:27:15;102940.03;;;0.57;73.74
76766;BME280;65707;52.362;6.588;2023-02-27T03:29:49;102950.75;;;0.52;74.10
76766;BME280;65707;52.362;6.588;2023-02-27T03:32:28;102951.78;;;0.48;73.76
76766;BME280;65707;52.362;6.588;2023-02-27T03:34:59;102948.78;;;0.59;73.76
76766;BME280;65707;52.362;6.588;2023-02-27T03:37:34;102946.06;;;0.60;73.62
76766;BME280;65707;52.362;6.588;2023-02-27T03:40:20;102959.34;;;0.59;73.45
76766;BME280;65707;52.362;6.588;2023-02-27T03:42:58;102954.09;;;0.57;73.65
76766;BME280;65707;52.362;6.588;2023-02-27T03:45:35;102955.59;;;0.66;73.18
76766;BME280;65707;52.362;6.588;2023-02-27T03:48:06;102954.59;;;0.68;72.88
76766;BME280;65707;52.362;6.588;2023-02-27T03:50:35;102959.00;;;0.68;73.13
76766;BME280;65707;52.362;6.588;2023-02-27T03:53:04;102970.00;;;0.56;73.62
76766;BME280;65707;52.362;6.588;2023-02-27T03:55:40;102964.06;;;0.49;73.96
76766;BME280;65707;52.362;6.588;2023-02-27T03:58:13;102961.25;;;0.54;73.87
76766;BME280;65707;52.362;6.588;2023-02-27T04:00:40;102965.66;;;0.55;73.94
76766;BME280;65707;52.362;6.588;2023-02-27T04:03:08;102963.00;;;0.55;73.07
76766;BME280;65707;52.362;6.588;2023-02-27T04:05:35;102961.97;;;0.59;73.35
76766;BME280;65707;52.362;6.588;2023-02-27T04:08:25;102949.03;;;0.51;73.07
76766;BME280;65707;52.362;6.588;2023-02-27T04:11:18;102962.13;;;0.54;72.77
76766;BME280;65707;52.362;6.588;2023-02-27T04:14:16;102964.13;;;0.48;72.78
76766;BME280;65707;52.362;6.588;2023-02-27T04:17:23;102973.13;;;0.42;72.63
76766;BME280;65707;52.362;6.588;2023-02-27T04:20:10;102973.13;;;0.42;72.65
76766;BME280;65707;52.362;6.588;2023-02-27T04:22:52;102963.13;;;0.26;72.96
76766;BME280;65707;52.362;6.588;2023-02-27T04:25:38;102984.03;;;0.32;73.63
76766;BME280;65707;52.362;6.588;2023-02-27T04:28:16;102986.66;;;0.32;73.57
76766;BME280;65707;52.362;6.588;2023-02-27T04:30:58;102986.03;;;0.25;73.60
76766;BME280;65707;52.362;6.588;2023-02-27T04:33:39;102986.31;;;0.16;74.43
76766;BME280;65707;52.362;6.588;2023-02-27T04:36:14;102990.81;;;0.14;74.72
76766;BME280;65707;52.362;6.588;2023-02-27T04:38:52;102990.75;;;0.16;74.91
76766;BME280;65707;52.362;6.588;2023-02-27T04:41:29;102986.97;;;0.23;74.29
76766;BME280;65707;52.362;6.588;2023-02-27T04:44:05;102995.81;;;0.22;74.15
76766;BME280;65707;52.362;6.588;2023-02-27T04:46:39;102986.31;;;0.16;74.05
76766;BME280;65707;52.362;6.588;2023-02-27T04:49:15;103002.09;;;0.18;74.32
76766;BME280;65707;52.362;6.588;2023-02-27T04:51:51;102996.81;;;0.18;74.27
76766;BME280;65707;52.362;6.588;2023-02-27T04:54:28;102996.13;;;0.13;74.11
76766;BME280;65707;52.362;6.588;2023-02-27T04:57:03;102985.06;;;0.02;74.27
76766;BME280;65707;52.362;6.588;2023-02-27T04:59:36;103006.75;;;0.10;74.47
76766;BME280;65707;52.362;6.588;2023-02-27T05:02:13;103006.84;;;0.07;73.62
76766;BME280;65707;52.362;6.588;2023-02-27T05:04:44;102997.72;;;-0.10;73.39
76766;BME280;65707;52.362;6.588;2023-02-27T05:07:17;103020.34;;;-0.03;73.47
76766;BME280;65707;52.362;6.588;2023-02-27T05:09:48;103017.13;;;-0.12;72.99
76766;BME280;65707;52.362;6.588;2023-02-27T05:12:21;103016.44;;;-0.19;73.02
76766;BME280;65707;52.362;6.588;2023-02-27T05:14:58;103030.66;;;-0.23;73.10
76766;BME280;65707;52.362;6.588;2023-02-27T05:17:33;103026.41;;;-0.28;73.59
76766;BME280;65707;52.362;6.588;2023-02-27T05:20:07;103026.66;;;-0.36;74.75
76766;BME280;65707;52.362;6.588;2023-02-27T05:22:44;103032.56;;;-0.28;74.95
76766;BME280;65707;52.362;6.588;2023-02-27T05:25:25;103030.00;;;-0.31;74.50
76766;BME280;65707;52.362;6.588;2023-02-27T05:27:57;103040.47;;;-0.28;74.90
76766;BME280;65707;52.362;6.588;2023-02-27T05:30:35;103047.50;;;-0.28;74.23
76766;BME280;65707;52.362;6.588;2023-02-27T05:33:13;103038.94;;;-0.36;73.72
76766;BME280;65707;52.362;6.588;2023-02-27T05:35:49;103044.38;;;-0.41;73.96
76766;BME280;65707;52.362;6.588;2023-02-27T05:38:22;103048.97;;;-0.47;74.23
76766;BME280;65707;52.362;6.588;2023-02-27T05:40:59;103046.41;;;-0.50;74.53
76766;BME280;65707;52.362;6.588;2023-02-27T05:43:32;103050.84;;;-0.51;74.96
76766;BME280;65707;52.362;6.588;2023-02-27T05:46:05;103054.44;;;-0.55;74.72
76766;BME280;65707;52.362;6.588;2023-02-27T05:48:41;103051.06;;;-0.58;74.71
76766;BME280;65707;52.362;6.588;2023-02-27T05:51:16;103054.81;;;-0.67;74.94
76766;BME280;65707;52.362;6.588;2023-02-27T05:53:49;103057.41;;;-0.65;75.00
76766;BME280;65707;52.362;6.588;2023-02-27T05:56:24;103065.91;;;-0.56;75.05
76766;BME280;65707;52.362;6.588;2023-02-27T05:58:59;103063.09;;;-0.50;74.50
76766;BME280;65707;52.362;6.588;2023-02-27T06:01:29;103066.56;;;-0.48;73.94
76766;BME280;65707;52.362;6.588;2023-02-27T06:04:00;103059.53;;;-0.47;73.75
76766;BME280;65707;52.362;6.588;2023-02-27T06:06:28;103049.34;;;-0.61;73.36
76766;BME280;65707;52.362;6.588;2023-02-27T06:08:56;103061.50;;;-0.55;73.70
76766;BME280;65707;52.362;6.588;2023-02-27T06:11:23;103058.84;;;-0.54;73.25
76766;BME280;65707;52.362;6.588;2023-02-27T06:13:49;103080.63;;;-0.47;73.73
76766;BME280;65707;52.362;6.588;2023-02-27T06:16:19;103079.97;;;-0.55;74.24
76766;BME280;65707;52.362;6.588;2023-02-27T06:18:46;103083.41;;;-0.53;74.08
76766;BME280;65707;52.362;6.588;2023-02-27T06:21:14;103082.44;;;-0.49;73.93
76766;BME280;65707;52.362;6.588;2023-02-27T06:23:41;103081.91;;;-0.62;74.10
76766;BME280;65707;52.362;6.588;2023-02-27T06:26:08;103083.28;;;-0.79;74.74
76766;BME280;65707;52.362;6.588;2023-02-27T06:28:38;103086.47;;;-1.00;75.84
76766;BME280;65707;52.362;6.588;2023-02-27T06:31:06;103089.47;;;-0.80;76.06
76766;BME280;65707;52.362;6.588;2023-02-27T06:33:33;103096.06;;;-0.66;75.50
76766;BME280;65707;52.362;6.588;2023-02-27T06:36:00;103091.66;;;-0.65;75.17
76766;BME280;65707;52.362;6.588;2023-02-27T06:38:28;103088.00;;;-0.60;74.95
76766;BME280;65707;52.362;6.588;2023-02-27T06:40:55;103093.38;;;-0.64;74.73
76766;BME280;65707;52.362;6.588;2023-02-27T06:43:23;103093.44;;;-0.66;75.07
76766;BME280;65707;52.362;6.588;2023-02-27T06:45:52;103086.34;;;-0.64;74.65
76766;BME280;65707;52.362;6.588;2023-02-27T06:48:20;103083.44;;;-0.55;74.70
76766;BME280;65707;52.362;6.588;2023-02-27T06:50:50;103079.00;;;-0.53;74.52
76766;BME280;65707;52.362;6.588;2023-02-27T06:53:17;103087.59;;;-0.46;74.47
76766;BME280;65707;52.362;6.588;2023-02-27T06:55:46;103087.47;;;-0.42;74.52
76766;BME280;65707;52.362;6.588;2023-02-27T06:58:13;103088.53;;;-0.47;74.28
76766;BME280;65707;52.362;6.588;2023-02-27T07:00:40;103084.00;;;-0.44;74.80
76766;BME280;65707;52.362;6.588;2023-02-27T07:03:08;103087.66;;;-0.48;74.93
76766;BME280;65707;52.362;6.588;2023-02-27T07:05:35;103091.19;;;-0.49;75.41
76766;BME280;65707;52.362;6.588;2023-02-27T07:08:02;103094.22;;;-0.32;75.01
76766;BME280;65707;52.362;6.588;2023-02-27T07:10:29;103100.94;;;-0.22;74.81
76766;BME280;65707;52.362;6.588;2023-02-27T07:12:58;103098.81;;;-0.09;74.48
76766;BME280;65707;52.362;6.588;2023-02-27T07:15:25;103092.41;;;-0.01;74.69
76766;BME280;65707;52.362;6.588;2023-02-27T07:17:52;103100.66;;;0.17;73.99
76766;BME280;65707;52.362;6.588;2023-02-27T07:20:19;103103.78;;;0.29;74.27
76766;BME280;65707;52.362;6.588;2023-02-27T07:22:46;103105.34;;;0.36;74.39
76766;BME280;65707;52.362;6.588;2023-02-27T07:25:13;103094.59;;;0.42;74.06
76766;BME280;65707;52.362;6.588;2023-02-27T07:27:40;103101.28;;;0.52;74.86
76766;BME280;65707;52.362;6.588;2023-02-27T07:30:11;103108.38;;;0.78;74.40
76766;BME280;65707;52.362;6.588;2023-02-27T07:32:38;103106.31;;;1.12;74.63
76766;BME280;65707;52.362;6.588;2023-02-27T07:35:06;103101.25;;;1.55;74.69
76766;BME280;65707;52.362;6.588;2023-02-27T07:37:36;103100.00;;;2.33;73.07
76766;BME280;65707;52.362;6.588;2023-02-27T07:40:04;103084.72;;;3.02;71.76
76766;BME280;65707;52.362;6.588;2023-02-27T07:42:33;103090.25;;;3.57;68.21
76766;BME280;65707;52.362;6.588;2023-02-27T07:45:00;103078.41;;;4.21;66.61
76766;BME280;65707;52.362;6.588;2023-02-27T07:47:28;103056.91;;;4.61;62.78
76766;BME280;65707;52.362;6.588;2023-02-27T07:49:55;103081.47;;;4.30;63.77
76766;BME280;65707;52.362;6.588;2023-02-27T07:52:23;103073.81;;;4.60;63.54
76766;BME280;65707;52.362;6.588;2023-02-27T07:54:50;103063.09;;;5.30;61.95
76766;BME280;65707;52.362;6.588;2023-02-27T07:57:17;103054.00;;;5.99;58.89
76766;BME280;65707;52.362;6.588;2023-02-27T07:59:44;103051.69;;;6.08;57.93
76766;BME280;65707;52.362;6.588;2023-02-27T08:02:12;103040.50;;;6.49;57.09
76766;BME280;65707;52.362;6.588;2023-02-27T08:04:41;103035.50;;;6.88;55.63
76766;BME280;65707;52.362;6.588;2023-02-27T08:07:08;103049.94;;;7.13;55.10
76766;BME280;65707;52.362;6.588;2023-02-27T08:09:34;103053.50;;;7.56;54.58
76766;BME280;65707;52.362;6.588;2023-02-27T08:12:01;103044.38;;;7.74;53.88
76766;BME280;65707;52.362;6.588;2023-02-27T08:14:28;103031.84;;;7.60;52.48
76766;BME280;65707;52.362;6.588;2023-02-27T08:16:55;103048.41;;;8.08;52.69
76766;BME280;65707;52.362;6.588;2023-02-27T08:19:22;103040.66;;;8.17;52.01
76766;BME280;65707;52.362;6.588;2023-02-27T08:21:50;103042.44;;;8.45;51.42
76766;BME280;65707;52.362;6.588;2023-02-27T08:24:20;103049.81;;;7.72;52.09
76766;BME280;65707;52.362;6.588;2023-02-27T08:26:47;103051.03;;;7.81;53.03
76766;BME280;65707;52.362;6.588;2023-02-27T08:29:13;103052.50;;;8.27;52.39
76766;BME280;65707;52.362;6.588;2023-02-27T08:31:40;103044.81;;;8.88;50.69
76766;BME280;65707;52.362;6.588;2023-02-27T08:34:07;103049.22;;;9.02;50.32
76766;BME280;65707;52.362;6.588;2023-02-27T08:36:34;103072.16;;;8.12;52.12
76766;BME280;65707;52.362;6.588;2023-02-27T08:39:03;103077.16;;;7.76;53.09
76766;BME280;65707;52.362;6.588;2023-02-27T08:41:32;103087.84;;;7.48;54.73
76766;BME280;65707;52.362;6.588;2023-02-27T08:43:59;103066.66;;;7.59;54.74
76766;BME280;65707;52.362;6.588;2023-02-27T08:46:26;103086.78;;;7.36;55.21
76766;BME280;65707;52.362;6.588;2023-02-27T08:48:52;103073.50;;;6.91;56.49
76766;BME280;65707;52.362;6.588;2023-02-27T08:51:19;103087.97;;;7.17;56.33
76766;BME280;65707;52.362;6.588;2023-02-27T08:53:46;103083.84;;;6.97;56.66
76766;BME280;65707;52.362;6.588;2023-02-27T08:56:16;103014.09;;;5.82;58.77
76766;BME280;65707;52.362;6.588;2023-02-27T08:58:42;103112.69;;;6.46;58.41
76766;BME280;65707;52.362;6.588;2023-02-27T09:01:09;103103.53;;;6.34;58.88
76766;BME280;65707;52.362;6.588;2023-02-27T09:03:36;103094.41;;;6.38;58.86
76766;BME280;65707;52.362;6.588;2023-02-27T09:06:04;103096.72;;;6.13;59.78
76766;BME280;65707;52.362;6.588;2023-02-27T09:08:31;103119.63;;;6.32;60.62
76766;BME280;65707;52.362;6.588;2023-02-27T09:10:58;103118.66;;;6.18;61.45
76766;BME280;65707;52.362;6.588;2023-02-27T09:13:26;103126.63;;;5.87;62.11
76766;BME280;65707;52.362;6.588;2023-02-27T09:15:53;103119.97;;;6.26;60.57
76766;BME280;65707;52.362;6.588;2023-02-27T09:18:21;103119.38;;;6.21;61.33
76766;BME280;65707;52.362;6.588;2023-02-27T09:20:51;103127.72;;;6.31;60.09
76766;BME280;65707;52.362;6.588;2023-02-27T09:23:18;103127.44;;;6.36;60.32
76766;BME280;65707;52.362;6.588;2023-02-27T09:25:46;103112.25;;;6.38;59.76
76766;BME280;65707;52.362;6.588;2023-02-27T09:28:13;103126.06;;;6.44;60.51
76766;BME280;65707;52.362;6.588;2023-02-27T09:30:41;103129.78;;;6.26;61.58
76766;BME280;65707;52.362;6.588;2023-02-27T09:33:08;103120.81;;;6.43;60.64
76766;BME280;65707;52.362;6.588;2023-02-27T09:35:35;103122.97;;;6.67;60.84
76766;BME280;65707;52.362;6.588;2023-02-27T09:38:03;103108.53;;;6.56;61.04
76766;BME280;65707;52.362;6.588;2023-02-27T09:40:32;103075.59;;;6.86;59.71
76766;BME280;65707;52.362;6.588;2023-02-27T09:43:08;103110.72;;;7.24;59.14
76766;BME280;65707;52.362;6.588;2023-02-27T09:45:45;103106.91;;;7.42;59.11
76766;BME280;65707;52.362;6.588;2023-02-27T09:48:22;103115.91;;;7.41;58.05
76766;BME280;65707;52.362;6.588;2023-02-27T09:50:56;103104.38;;;7.97;57.09
76766;BME280;65707;52.362;6.588;2023-02-27T09:53:27;103098.66;;;8.17;54.88
76766;BME280;65707;52.362;6.588;2023-02-27T09:56:00;103084.72;;;8.26;54.97
76766;BME280;65707;52.362;6.588;2023-02-27T09:58:44;103095.94;;;8.45;55.90
76766;BME280;65707;52.362;6.588;2023-02-27T10:01:19;103088.84;;;8.44;55.23
76766;BME280;65707;52.362;6.588;2023-02-27T10:04:03;103080.88;;;8.83;53.73
76766;BME280;65707;52.362;6.588;2023-02-27T10:06:47;103075.41;;;9.23;53.51
76766;BME280;65707;52.362;6.588;2023-02-27T10:09:30;103067.47;;;9.85;52.72
76766;BME280;65707;52.362;6.588;2023-02-27T10:12:14;103058.59;;;10.33;50.52
76766;BME280;65707;52.362;6.588;2023-02-27T10:14:58;103052.06;;;10.71;48.69
76766;BME280;65707;52.362;6.588;2023-02-27T10:17:35;103044.72;;;11.54;47.60
76766;BME280;65707;52.362;6.588;2023-02-27T10:20:08;103028.94;;;12.26;45.69
76766;BME280;65707;52.362;6.588;2023-02-27T10:22:43;103027.94;;;12.70;44.41
76766;BME280;65707;52.362;6.588;2023-02-27T10:25:15;103018.19;;;13.10;43.07
76766;BME280;65707;52.362;6.588;2023-02-27T10:27:46;103014.19;;;13.46;41.95
76766;BME280;65707;52.362;6.588;2023-02-27T10:30:20;103015.19;;;13.84;40.79
76766;BME280;65707;52.362;6.588;2023-02-27T10:32:53;103023.25;;;13.75;42.02
76766;BME280;65707;52.362;6.588;2023-02-27T10:35:29;103008.44;;;13.99;40.70
76766;BME280;65707;52.362;6.588;2023-02-27T10:38:02;103001.59;;;14.73;39.23
76766;BME280;65707;52.362;6.588;2023-02-27T10:40:35;103005.13;;;14.83;38.80
76766;BME280;65707;52.362;6.588;2023-02-27T10:43:05;103006.44;;;14.70;38.06
76766;BME280;65707;52.362;6.588;2023-02-27T10:45:32;103003.81;;;15.16;37.81
76766;BME280;65707;52.362;6.588;2023-02-27T10:48:01;103004.97;;;15.13;37.31
76766;BME280;65707;52.362;6.588;2023-02-27T10:50:34;102995.97;;;15.22;37.14
76766;BME280;65707;52.362;6.588;2023-02-27T10:53:06;102992.66;;;15.28;35.74
76766;BME280;65707;52.362;6.588;2023-02-27T10:55:47;102998.75;;;14.75;36.19
76766;BME280;65707;52.362;6.588;2023-02-27T10:58:24;102997.50;;;14.20;37.53
76766;BME280;65707;52.362;6.588;2023-02-27T11:00:55;102999.94;;;15.37;37.20
76766;BME280;65707;52.362;6.588;2023-02-27T11:03:26;102994.44;;;15.10;35.92
76766;BME280;65707;52.362;6.588;2023-02-27T11:05:57;102987.50;;;14.98;37.58
76766;BME280;65707;52.362;6.588;2023-02-27T11:08:28;102984.63;;;15.56;35.50
76766;BME280;65707;52.362;6.588;2023-02-27T11:10:58;102985.72;;;15.72;34.31
76766;BME280;65707;52.362;6.588;2023-02-27T11:13:28;102968.78;;;15.97;33.81
76766;BME280;65707;52.362;6.588;2023-02-27T11:16:03;102975.66;;;14.99;34.98
76766;BME280;65707;52.362;6.588;2023-02-27T11:18:36;102981.91;;;15.09;34.44
76766;BME280;65707;52.362;6.588;2023-02-27T11:21:11;102963.19;;;14.60;34.42
76766;BME280;65707;52.362;6.588;2023-02-27T11:23:56;102984.09;;;13.80;36.33
76766;BME280;65707;52.362;6.588;2023-02-27T11:26:27;102976.47;;;14.04;35.31
76766;BME280;65707;52.362;6.588;2023-02-27T11:29:05;102977.00;;;13.89;35.08
76766;BME280;65707;52.362;6.588;2023-02-27T11:31:44;102978.63;;;13.11;36.62
76766;BME280;65707;52.362;6.588;2023-02-27T11:34:21;102990.88;;;13.15;36.04
76766;BME280;65707;52.362;6.588;2023-02-27T11:36:54;102982.53;;;12.66;36.78
76766;BME280;65707;52.362;6.588;2023-02-27T11:39:28;102994.00;;;12.04;37.58
76766;BME280;65707;52.362;6.588;2023-02-27T11:42:15;103009.94;;;11.74;38.36
76766;BME280;65707;52.362;6.588;2023-02-27T11:44:50;103002.81;;;11.29;39.28
76766;BME280;65707;52.362;6.588;2023-02-27T11:47:24;102996.28;;;11.10;39.16
76766;BME280;65707;52.362;6.588;2023-02-27T11:50:28;103012.31;;;10.76;39.97
76766;BME280;65707;52.362;6.588;2023-02-27T11:53:23;103022.94;;;10.54;42.41
76766;BME280;65707;52.362;6.588;2023-02-27T11:56:16;103024.38;;;10.24;42.05
76766;BME280;65707;52.362;6.588;2023-02-27T11:58:51;103032.38;;;10.00;42.85
76766;BME280;65707;52.362;6.588;2023-02-27T12:01:31;103030.06;;;9.83;42.99
76766;BME280;65707;52.362;6.588;2023-02-27T12:04:09;103023.13;;;10.40;42.80
76766;BME280;65707;52.362;6.588;2023-02-27T12:06:49;103024.09;;;10.63;41.29
76766;BME280;65707;52.362;6.588;2023-02-27T12:09:33;103022.72;;;10.34;40.82
76766;BME280;65707;52.362;6.588;2023-02-27T12:12:13;103018.84;;;10.02;40.72
76766;BME280;65707;52.362;6.588;2023-02-27T12:14:52;103006.34;;;9.65;42.37
76766;BME280;65707;52.362;6.588;2023-02-27T12:17:29;103018.94;;;9.52;42.46
76766;BME280;65707;52.362;6.588;2023-02-27T12:20:17;103013.59;;;10.13;41.44
76766;BME280;65707;52.362;6.588;2023-02-27T12:22:52;102992.78;;;11.42;38.67
76766;BME280;65707;52.362;6.588;2023-02-27T12:25:35;102991.69;;;11.56;37.77
76766;BME280;65707;52.362;6.588;2023-02-27T12:28:18;102987.25;;;12.10;38.48
76766;BME280;65707;52.362;6.588;2023-02-27T12:31:06;102971.78;;;12.34;37.91
76766;BME280;65707;52.362;6.588;2023-02-27T12:33:47;102978.28;;;11.78;37.97
76766;BME280;65707;52.362;6.588;2023-02-27T12:36:20;102987.69;;;11.72;38.14
76766;BME280;65707;52.362;6.588;2023-02-27T12:38:48;102975.59;;;12.52;36.69
76766;BME280;65707;52.362;6.588;2023-02-27T12:41:35;102976.44;;;12.84;37.35
76766;BME280;65707;52.362;6.588;2023-02-27T12:44:24;102962.38;;;13.52;36.79
76766;BME280;65707;52.362;6.588;2023-02-27T12:47:07;102962.19;;;13.44;35.80
76766;BME280;65707;52.362;6.588;2023-02-27T12:49:49;102951.31;;;14.04;35.90
76766;BME280;65707;52.362;6.588;2023-02-27T12:52:32;102930.59;;;14.90;32.87
76766;BME280;65707;52.362;6.588;2023-02-27T12:55:11;102936.16;;;14.79;34.28
76766;BME280;65707;52.362;6.588;2023-02-27T13:00:52;102935.59;;;14.76;33.66
76766;BME280;65707;52.362;6.588;2023-02-27T13:03:27;102938.06;;;13.82;34.92
76766;BME280;65707;52.362;6.588;2023-02-27T13:06:02;102950.25;;;13.07;36.41
76766;BME280;65707;52.362;6.588;2023-02-27T13:08:53;102941.66;;;11.97;36.69
76766;BME280;65707;52.362;6.588;2023-02-27T13:11:41;102970.44;;;11.31;38.06
76766;BME280;65707;52.362;6.588;2023-02-27T13:14:24;102970.78;;;11.81;38.46
76766;BME280;65707;52.362;6.588;2023-02-27T13:17:09;102939.03;;;13.32;35.37
76766;BME280;65707;52.362;6.588;2023-02-27T13:19:48;102911.00;;;14.41;33.14
76766;BME280;65707;52.362;6.588;2023-02-27T13:22:31;102919.09;;;14.50;32.55
76766;BME280;65707;52.362;6.588;2023-02-27T13:25:11;102926.78;;;15.20;32.10
76766;BME280;65707;52.362;6.588;2023-02-27T13:27:43;102915.69;;;15.60;31.25
76766;BME280;65707;52.362;6.588;2023-02-27T13:30:19;102907.69;;;15.85;30.12
76766;BME280;65707;52.362;6.588;2023-02-27T13:32:54;102899.63;;;15.76;30.47
76766;BME280;65707;52.362;6.588;2023-02-27T13:35:32;102900.06;;;15.98;30.66
76766;BME280;65707;52.362;6.588;2023-02-27T13:38:28;102916.97;;;14.44;31.81